createdAt,value
2018-10-02T00:01:00.826Z,1015.27
2018-10-02T00:02:09.457Z,1015.22
2018-10-02T00:03:18.083Z,1015.2
2018-10-02T00:04:26.702Z,1015.16
2018-10-02T00:05:35.595Z,1015.19
2018-10-02T00:06:44.227Z,1015.19
2018-10-02T00:07:52.859Z,1015.15
2018-10-02T00:09:01.487Z,1015.16
2018-10-02T00:10:10.105Z,1015.18
2018-10-02T00:11:18.737Z,1015.2
2018-10-02T00:12:27.367Z,1015.16
2018-10-02T00:13:35.999Z,1015.12
2018-10-02T00:14:44.625Z,1015.09
2018-10-02T00:15:53.250Z,1015.09
2018-10-02T00:17:01.881Z,1015.08
2018-10-02T00:18:10.515Z,1015.08
2018-10-02T00:19:19.139Z,1015.04
2018-10-02T00:20:27.768Z,1015.03
2018-10-02T00:21:36.393Z,1015.03
2018-10-02T00:22:45.028Z,1015.01
2018-10-02T00:23:53.652Z,1015.01
2018-10-02T00:25:02.281Z,1015.01
2018-10-02T00:26:10.910Z,1015
2018-10-02T00:27:19.539Z,1015.03
2018-10-02T00:28:28.168Z,1015.09
2018-10-02T00:29:37.065Z,1015.09
2018-10-02T00:30:45.691Z,1015.07
2018-10-02T00:31:54.402Z,1015.02
2018-10-02T00:33:03.335Z,1015.01
2018-10-02T00:34:11.961Z,1015.01
2018-10-02T00:35:20.590Z,1014.98
2018-10-02T00:36:29.213Z,1014.95
2018-10-02T00:37:37.844Z,1014.92
2018-10-02T00:38:46.472Z,1014.92
2018-10-02T00:39:55.105Z,1014.93
2018-10-02T00:41:03.729Z,1014.96
2018-10-02T00:42:12.360Z,1014.98
2018-10-02T00:43:20.991Z,1014.97
2018-10-02T00:44:29.625Z,1014.96
2018-10-02T00:45:38.256Z,1014.96
2018-10-02T00:46:47.140Z,1015
2018-10-02T00:47:55.768Z,1015.01
2018-10-02T00:49:04.408Z,1015.02
2018-10-02T00:50:13.567Z,1015.01
2018-10-02T00:51:22.199Z,1015.04
2018-10-02T00:52:31.088Z,1015.03
2018-10-02T00:53:39.716Z,1015.03
2018-10-02T00:54:48.349Z,1015.05
2018-10-02T00:55:56.975Z,1015.01
2018-10-02T00:57:05.606Z,1014.98
2018-10-02T00:58:14.234Z,1014.96
2018-10-02T00:59:23.128Z,1014.95
2018-10-02T01:00:31.754Z,1014.99
2018-10-02T01:01:40.382Z,1014.94
2018-10-02T01:02:49.009Z,1014.94
2018-10-02T01:03:57.637Z,1015.01
2018-10-02T01:05:06.277Z,1014.96
2018-10-02T01:06:14.897Z,1015.01
2018-10-02T01:07:23.796Z,1015
2018-10-02T01:08:32.423Z,1015
2018-10-02T01:09:41.054Z,1014.99
2018-10-02T01:10:49.948Z,1014.98
2018-10-02T01:11:58.858Z,1014.97
2018-10-02T01:13:07.470Z,1014.96
2018-10-02T01:14:16.628Z,1014.97
2018-10-02T01:15:25.251Z,1014.94
2018-10-02T01:16:33.877Z,1014.96
2018-10-02T01:17:42.510Z,1014.95
2018-10-02T01:18:51.137Z,1014.91
2018-10-02T01:19:59.772Z,1014.83
2018-10-02T01:21:08.400Z,1014.8
2018-10-02T01:22:17.028Z,1014.77
2018-10-02T01:23:25.662Z,1014.78
2018-10-02T01:24:34.557Z,1014.75
2018-10-02T01:25:43.186Z,1014.71
2018-10-02T01:26:51.815Z,1014.74
2018-10-02T01:28:00.448Z,1014.75
2018-10-02T01:29:09.347Z,1014.76
2018-10-02T01:30:18.237Z,1014.73
2018-10-02T01:31:27.123Z,1014.72
2018-10-02T01:32:35.763Z,1014.72
2018-10-02T01:33:44.386Z,1014.73
2018-10-02T01:34:53.016Z,1014.72
2018-10-02T01:36:01.642Z,1014.76
2018-10-02T01:37:10.270Z,1014.72
2018-10-02T01:38:18.896Z,1014.7
2018-10-02T01:39:27.790Z,1014.66
2018-10-02T01:40:36.421Z,1014.65
2018-10-02T01:41:45.044Z,1014.71
2018-10-02T01:42:53.674Z,1014.66
2018-10-02T01:44:02.563Z,1014.63
2018-10-02T01:45:11.195Z,1014.59
2018-10-02T01:46:19.819Z,1014.56
2018-10-02T01:47:28.720Z,1014.54
2018-10-02T01:48:37.348Z,1014.56
2018-10-02T01:49:45.982Z,1014.61
2018-10-02T01:50:54.608Z,1014.6
2018-10-02T01:52:03.239Z,1014.61
2018-10-02T01:53:12.128Z,1014.59
2018-10-02T01:54:21.022Z,1014.6
2018-10-02T01:55:29.651Z,1014.59
2018-10-02T01:56:38.279Z,1014.56
2018-10-02T01:57:46.904Z,1014.55
2018-10-02T01:58:55.531Z,1014.59
2018-10-02T02:00:04.164Z,1014.59
2018-10-02T02:01:12.795Z,1014.63
2018-10-02T02:02:21.426Z,1014.62
2018-10-02T02:03:30.053Z,1014.58
2018-10-02T02:04:38.686Z,1014.53
2018-10-02T02:05:47.576Z,1014.5
2018-10-02T02:06:56.203Z,1014.53
2018-10-02T02:08:04.824Z,1014.5
2018-10-02T02:09:13.463Z,1014.53
2018-10-02T02:10:22.091Z,1014.5
2018-10-02T02:11:31.040Z,1014.42
2018-10-02T02:12:39.616Z,1014.47
2018-10-02T02:13:48.249Z,1014.46
2018-10-02T02:14:56.884Z,1014.43
2018-10-02T02:16:05.772Z,1014.41
2018-10-02T02:17:14.407Z,1014.38
2018-10-02T02:18:23.026Z,1014.36
2018-10-02T02:19:31.660Z,1014.36
2018-10-02T02:20:40.547Z,1014.31
2018-10-02T02:21:49.451Z,1014.25
2018-10-02T02:22:58.071Z,1014.23
2018-10-02T02:24:06.705Z,1014.18
2018-10-02T02:25:15.331Z,1014.18
2018-10-02T02:26:24.234Z,1014.18
2018-10-02T02:27:32.852Z,1014.17
2018-10-02T02:28:41.754Z,1014.17
2018-10-02T02:29:50.379Z,1014.14
2018-10-02T02:30:59.285Z,1014.09
2018-10-02T02:32:07.909Z,1014.09
2018-10-02T02:33:16.542Z,1014.06
2018-10-02T02:34:25.446Z,1014.08
2018-10-02T02:35:34.070Z,1014.06
2018-10-02T02:36:42.974Z,1014.05
2018-10-02T02:37:51.865Z,1014.06
2018-10-02T02:39:00.759Z,1014.1
2018-10-02T02:40:09.636Z,1014.06
2018-10-02T02:41:18.284Z,1014.06
2018-10-02T02:42:26.913Z,1014.07
2018-10-02T02:43:35.812Z,1014.07
2018-10-02T02:44:44.441Z,1014.06
2018-10-02T02:45:53.345Z,1014.05
2018-10-02T02:47:02.232Z,1014.08
2018-10-02T02:48:10.862Z,1014.06
2018-10-02T02:49:19.482Z,1014.1
2018-10-02T02:50:28.376Z,1014.08
2018-10-02T02:51:37.017Z,1014.08
2018-10-02T02:52:45.707Z,1014.04
2018-10-02T02:53:54.284Z,1014.09
2018-10-02T02:55:03.163Z,1014.01
2018-10-02T02:56:11.803Z,1013.98
2018-10-02T02:57:20.960Z,1013.89
2018-10-02T02:58:29.594Z,1013.87
2018-10-02T02:59:38.213Z,1013.88
2018-10-02T03:00:47.111Z,1013.85
2018-10-02T03:01:55.736Z,1013.84
2018-10-02T03:03:04.376Z,1013.78
2018-10-02T03:04:12.999Z,1013.76
2018-10-02T03:05:21.637Z,1013.77
2018-10-02T03:06:30.528Z,1013.75
2018-10-02T03:07:39.164Z,1013.69
2018-10-02T03:08:47.792Z,1013.64
2018-10-02T03:09:56.421Z,1013.57
2018-10-02T03:11:05.050Z,1013.56
2018-10-02T03:12:13.941Z,1013.59
2018-10-02T03:13:22.838Z,1013.56
2018-10-02T03:14:31.750Z,1013.6
2018-10-02T03:15:40.381Z,1013.56
2018-10-02T03:16:49.009Z,1013.52
2018-10-02T03:17:57.912Z,1013.44
2018-10-02T03:19:06.848Z,1013.48
2018-10-02T03:20:15.441Z,1013.5
2018-10-02T03:21:24.331Z,1013.48
2018-10-02T03:22:32.965Z,1013.47
2018-10-02T03:23:41.590Z,1013.45
2018-10-02T03:24:50.225Z,1013.4
2018-10-02T03:25:58.856Z,1013.4
2018-10-02T03:27:07.765Z,1013.37
2018-10-02T03:28:16.395Z,1013.37
2018-10-02T03:29:25.026Z,1013.33
2018-10-02T03:30:33.659Z,1013.32
2018-10-02T03:31:42.285Z,1013.37
2018-10-02T03:32:51.175Z,1013.37
2018-10-02T03:33:59.808Z,1013.35
2018-10-02T03:35:08.444Z,1013.3
2018-10-02T03:36:17.070Z,1013.24
2018-10-02T03:37:25.704Z,1013.2
2018-10-02T03:38:34.334Z,1013.25
2018-10-02T03:39:42.968Z,1013.22
2018-10-02T03:40:51.857Z,1013.25
2018-10-02T03:42:00.487Z,1013.26
2018-10-02T03:43:09.115Z,1013.27
2018-10-02T03:44:17.763Z,1013.24
2018-10-02T03:45:26.392Z,1013.22
2018-10-02T03:46:35.288Z,1013.16
2018-10-02T03:47:43.921Z,1013.08
2018-10-02T03:48:52.596Z,1013.04
2018-10-02T03:50:01.185Z,1013.03
2018-10-02T03:51:10.080Z,1013
2018-10-02T03:52:19.501Z,1012.96
2018-10-02T03:53:28.391Z,1013.02
2018-10-02T03:54:37.286Z,1013.08
2018-10-02T03:55:45.918Z,1013.05
2018-10-02T03:56:54.552Z,1013.06
2018-10-02T03:58:03.183Z,1013.05
2018-10-02T03:59:11.824Z,1013.07
2018-10-02T04:00:21.011Z,1013.07
2018-10-02T04:01:29.901Z,1012.97
2018-10-02T04:02:38.790Z,1012.97
2018-10-02T04:03:47.693Z,1012.94
2018-10-02T04:04:56.609Z,1012.9
2018-10-02T04:06:05.501Z,1012.86
2018-10-02T04:07:14.413Z,1012.91
2018-10-02T04:08:23.032Z,1012.87
2018-10-02T04:09:31.932Z,1012.91
2018-10-02T04:10:40.827Z,1012.85
2018-10-02T04:11:49.735Z,1012.8
2018-10-02T04:12:58.385Z,1012.77
2018-10-02T04:14:07.736Z,1012.72
2018-10-02T04:15:16.365Z,1012.66
2018-10-02T04:16:25.271Z,1012.62
2018-10-02T04:17:34.156Z,1012.61
2018-10-02T04:18:42.792Z,1012.58
2018-10-02T04:19:51.417Z,1012.53
2018-10-02T04:21:00.056Z,1012.58
2018-10-02T04:22:08.684Z,1012.59
2018-10-02T04:23:17.311Z,1012.59
2018-10-02T04:24:25.939Z,1012.61
2018-10-02T04:25:34.566Z,1012.63
2018-10-02T04:26:43.202Z,1012.64
2018-10-02T04:27:51.893Z,1012.64
2018-10-02T04:29:00.457Z,1012.6
2018-10-02T04:30:09.337Z,1012.6
2018-10-02T04:31:17.975Z,1012.64
2018-10-02T04:32:26.606Z,1012.64
2018-10-02T04:33:35.296Z,1012.6
2018-10-02T04:34:44.193Z,1012.58
2018-10-02T04:35:52.836Z,1012.54
2018-10-02T04:37:01.461Z,1012.55
2018-10-02T04:38:10.357Z,1012.54
2018-10-02T04:39:19.251Z,1012.6
2018-10-02T04:40:27.874Z,1012.62
2018-10-02T04:41:36.507Z,1012.65
2018-10-02T04:42:45.138Z,1012.62
2018-10-02T04:43:53.768Z,1012.63
2018-10-02T04:45:02.388Z,1012.63
2018-10-02T04:46:11.021Z,1012.64
2018-10-02T04:47:19.645Z,1012.62
2018-10-02T04:48:28.285Z,1012.53
2018-10-02T04:49:36.907Z,1012.5
2018-10-02T04:50:45.538Z,1012.52
2018-10-02T04:51:54.162Z,1012.5
2018-10-02T04:53:02.800Z,1012.46
2018-10-02T04:54:11.421Z,1012.48
2018-10-02T04:55:20.054Z,1012.5
2018-10-02T04:56:28.683Z,1012.49
2018-10-02T04:57:37.588Z,1012.42
2018-10-02T04:58:46.290Z,1012.42
2018-10-02T04:59:54.915Z,1012.36
2018-10-02T05:01:04.363Z,1012.35
2018-10-02T05:02:13.200Z,1012.34
2018-10-02T05:03:22.164Z,1012.35
2018-10-02T05:04:30.837Z,1012.39
2018-10-02T05:05:40.196Z,1012.4
2018-10-02T05:06:48.943Z,1012.39
2018-10-02T05:07:57.714Z,1012.36
2018-10-02T05:09:06.357Z,1012.39
2018-10-02T05:10:15.001Z,1012.36
2018-10-02T05:11:23.656Z,1012.41
2018-10-02T05:12:32.284Z,1012.35
2018-10-02T05:13:41.188Z,1012.35
2018-10-02T05:14:49.824Z,1012.35
2018-10-02T05:15:58.472Z,1012.3
2018-10-02T05:17:07.112Z,1012.3
2018-10-02T05:18:15.738Z,1012.35
2018-10-02T05:19:24.372Z,1012.27
2018-10-02T05:20:33.046Z,1012.32
2018-10-02T05:21:42.256Z,1012.27
2018-10-02T05:22:50.888Z,1012.27
2018-10-02T05:23:59.531Z,1012.24
2018-10-02T05:25:08.164Z,1012.26
2018-10-02T05:26:17.083Z,1012.22
2018-10-02T05:27:25.824Z,1012.25
2018-10-02T05:28:34.368Z,1012.19
2018-10-02T05:29:43.276Z,1012.18
2018-10-02T05:30:52.189Z,1012.18
2018-10-02T05:32:00.824Z,1012.15
2018-10-02T05:33:09.464Z,1012.15
2018-10-02T05:34:18.094Z,1012.22
2018-10-02T05:35:26.776Z,1012.19
2018-10-02T05:36:35.377Z,1012.18
2018-10-02T05:37:44.020Z,1012.13
2018-10-02T05:38:52.923Z,1012.1
2018-10-02T05:40:01.558Z,1012.11
2018-10-02T05:41:10.465Z,1012.1
2018-10-02T05:42:19.103Z,1012.1
2018-10-02T05:43:27.752Z,1012.07
2018-10-02T05:44:36.378Z,1012.1
2018-10-02T05:45:45.023Z,1012.08
2018-10-02T05:46:53.657Z,1012.09
2018-10-02T05:48:02.301Z,1012.05
2018-10-02T05:49:10.928Z,1012.05
2018-10-02T05:50:19.569Z,1012.04
2018-10-02T05:51:28.514Z,1012.1
2018-10-02T05:52:37.425Z,1012.03
2018-10-02T05:53:46.073Z,1012
2018-10-02T05:54:54.964Z,1012.01
2018-10-02T05:56:03.600Z,1012.02
2018-10-02T05:57:12.236Z,1012
2018-10-02T05:58:21.152Z,1011.95
2018-10-02T05:59:29.781Z,1011.97
2018-10-02T06:00:38.424Z,1011.96
2018-10-02T06:01:47.052Z,1011.98
2018-10-02T06:02:55.961Z,1011.95
2018-10-02T06:04:04.598Z,1011.99
2018-10-02T06:05:13.237Z,1011.97
2018-10-02T06:06:21.868Z,1011.98
2018-10-02T06:07:30.512Z,1011.99
2018-10-02T06:08:39.148Z,1011.93
2018-10-02T06:09:47.828Z,1011.9
2018-10-02T06:10:56.422Z,1011.89
2018-10-02T06:12:05.063Z,1011.83
2018-10-02T06:13:13.704Z,1011.86
2018-10-02T06:14:22.614Z,1011.83
2018-10-02T06:15:31.253Z,1011.83
2018-10-02T06:16:39.885Z,1011.85
2018-10-02T06:17:48.523Z,1011.84
2018-10-02T06:18:57.164Z,1011.82
2018-10-02T06:20:06.066Z,1011.78
2018-10-02T06:21:14.700Z,1011.74
2018-10-02T06:22:23.603Z,1011.72
2018-10-02T06:23:32.239Z,1011.64
2018-10-02T06:24:40.913Z,1011.62
2018-10-02T06:25:49.518Z,1011.57
2018-10-02T06:26:58.421Z,1011.49
2018-10-02T06:28:07.057Z,1011.5
2018-10-02T06:29:15.702Z,1011.46
2018-10-02T06:30:24.684Z,1011.49
2018-10-02T06:31:33.607Z,1011.43
2018-10-02T06:32:42.327Z,1011.41
2018-10-02T06:33:50.878Z,1011.4
2018-10-02T06:34:59.516Z,1011.33
2018-10-02T06:36:08.430Z,1011.33
2018-10-02T06:37:17.073Z,1011.33
2018-10-02T06:38:25.925Z,1011.28
2018-10-02T06:39:35.568Z,1011.26
2018-10-02T06:40:44.478Z,1011.31
2018-10-02T06:41:53.392Z,1011.27
2018-10-02T06:43:02.300Z,1011.26
2018-10-02T06:44:10.941Z,1011.32
2018-10-02T06:45:19.847Z,1011.31
2018-10-02T06:46:28.487Z,1011.39
2018-10-02T06:47:37.123Z,1011.43
2018-10-02T06:48:45.763Z,1011.4
2018-10-02T06:49:54.405Z,1011.32
2018-10-02T06:51:03.409Z,1011.25
2018-10-02T06:52:12.168Z,1011.22
2018-10-02T06:53:21.213Z,1011.22
2018-10-02T06:54:30.114Z,1011.19
2018-10-02T06:55:39.019Z,1011.12
2018-10-02T06:56:47.712Z,1011.15
2018-10-02T06:57:56.305Z,1011.16
2018-10-02T06:59:04.939Z,1011.2
2018-10-02T07:00:13.576Z,1011.19
2018-10-02T07:01:22.220Z,1011.21
2018-10-02T07:02:30.901Z,1011.25
2018-10-02T07:03:39.867Z,1011.25
2018-10-02T07:04:48.767Z,1011.22
2018-10-02T07:05:57.418Z,1011.21
2018-10-02T07:07:06.057Z,1011.16
2018-10-02T07:08:14.690Z,1011.1
2018-10-02T07:09:23.324Z,1011.03
2018-10-02T07:10:31.973Z,1011
2018-10-02T07:11:40.618Z,1010.98
2018-10-02T07:12:49.261Z,1010.99
2018-10-02T07:13:57.892Z,1011
2018-10-02T07:15:06.597Z,1011.04
2018-10-02T07:16:15.180Z,1011
2018-10-02T07:17:23.835Z,1011.04
2018-10-02T07:18:32.751Z,1011.06
2018-10-02T07:19:41.380Z,1011.13
2018-10-02T07:20:50.037Z,1011.12
2018-10-02T07:21:58.934Z,1011.11
2018-10-02T07:23:07.840Z,1011.11
2018-10-02T07:24:16.729Z,1011.05
2018-10-02T07:25:25.389Z,1010.94
2018-10-02T07:26:34.055Z,1010.98
2018-10-02T07:27:42.911Z,1010.96
2018-10-02T07:28:51.328Z,1010.97
2018-10-02T07:30:00.217Z,1010.9
2018-10-02T07:31:08.924Z,1010.85
2018-10-02T07:32:17.496Z,1010.91
2018-10-02T07:33:26.145Z,1010.89
2018-10-02T07:34:34.776Z,1010.88
2018-10-02T07:35:43.947Z,1010.79
2018-10-02T07:36:52.598Z,1010.73
2018-10-02T07:38:01.230Z,1010.76
2018-10-02T07:39:09.856Z,1010.75
2018-10-02T07:40:18.500Z,1010.85
2018-10-02T07:41:27.204Z,1010.84
2018-10-02T07:42:36.140Z,1010.79
2018-10-02T07:43:45.047Z,1010.75
2018-10-02T07:44:53.948Z,1010.75
2018-10-02T07:46:02.530Z,1010.68
2018-10-02T07:47:11.425Z,1010.69
2018-10-02T07:48:20.130Z,1010.66
2018-10-02T07:49:28.991Z,1010.63
2018-10-02T07:50:37.661Z,1010.64
2018-10-02T07:51:46.270Z,1010.66
2018-10-02T07:52:54.916Z,1010.64
2018-10-02T07:54:03.870Z,1010.67
2018-10-02T07:55:12.470Z,1010.57
2018-10-02T07:56:21.379Z,1010.54
2018-10-02T07:57:30.021Z,1010.48
2018-10-02T07:58:38.659Z,1010.5
2018-10-02T07:59:47.411Z,1010.47
2018-10-02T08:00:55.941Z,1010.5
2018-10-02T08:02:04.581Z,1010.47
2018-10-02T08:03:13.221Z,1010.44
2018-10-02T08:04:21.864Z,1010.4
2018-10-02T08:05:30.566Z,1010.33
2018-10-02T08:06:39.200Z,1010.4
2018-10-02T08:07:47.836Z,1010.4
2018-10-02T08:08:56.555Z,1010.52
2018-10-02T08:10:05.128Z,1010.51
2018-10-02T08:11:13.761Z,1010.46
2018-10-02T08:12:22.584Z,1010.45
2018-10-02T08:13:31.087Z,1010.42
2018-10-02T08:14:39.795Z,1010.41
2018-10-02T08:15:48.318Z,1010.4
2018-10-02T08:16:57.223Z,1010.43
2018-10-02T08:18:06.020Z,1010.45
2018-10-02T08:19:14.511Z,1010.45
2018-10-02T08:20:23.163Z,1010.5
2018-10-02T08:21:32.108Z,1010.49
2018-10-02T08:22:41.064Z,1010.44
2018-10-02T08:23:49.733Z,1010.42
2018-10-02T08:24:58.341Z,1010.44
2018-10-02T08:26:06.980Z,1010.41
2018-10-02T08:27:15.787Z,1010.39
2018-10-02T08:28:24.252Z,1010.38
2018-10-02T08:29:32.985Z,1010.32
2018-10-02T08:30:41.532Z,1010.33
2018-10-02T08:31:50.434Z,1010.24
2018-10-02T08:32:59.173Z,1010.18
2018-10-02T08:34:07.864Z,1010.22
2018-10-02T08:35:16.517Z,1010.18
2018-10-02T08:36:25.157Z,1010.17
2018-10-02T08:37:33.776Z,1010.14
2018-10-02T08:38:42.515Z,1010.17
2018-10-02T08:39:51.546Z,1010.14
2018-10-02T08:41:00.188Z,1010.2
2018-10-02T08:42:08.829Z,1010.17
2018-10-02T08:43:17.538Z,1010.18
2018-10-02T08:44:26.170Z,1010.18
2018-10-02T08:45:35.094Z,1010.17
2018-10-02T08:46:43.750Z,1010.13
2018-10-02T08:47:52.385Z,1010.17
2018-10-02T08:49:01.018Z,1010.15
2018-10-02T08:50:09.659Z,1010.2
2018-10-02T08:51:18.623Z,1010.04
2018-10-02T08:52:27.519Z,1009.99
2018-10-02T08:53:36.227Z,1010.02
2018-10-02T08:54:44.805Z,1009.97
2018-10-02T08:55:53.446Z,1009.98
2018-10-02T08:57:02.083Z,1009.99
2018-10-02T08:58:10.718Z,1009.96
2018-10-02T08:59:19.356Z,1010.03
2018-10-02T09:00:28.010Z,1010.11
2018-10-02T09:01:37.253Z,1010.08
2018-10-02T09:02:45.892Z,1010.11
2018-10-02T09:03:54.536Z,1010.16
2018-10-02T09:05:03.471Z,1010.14
2018-10-02T09:06:12.384Z,1010.01
2018-10-02T09:07:21.018Z,1009.99
2018-10-02T09:08:29.658Z,1009.93
2018-10-02T09:09:38.300Z,1010.07
2018-10-02T09:10:46.932Z,1010.03
2018-10-02T09:11:55.580Z,1010.06
2018-10-02T09:13:04.318Z,1010.02
2018-10-02T09:14:12.865Z,1010.1
2018-10-02T09:15:21.825Z,1010.05
2018-10-02T09:16:30.506Z,1009.99
2018-10-02T09:17:39.053Z,1009.93
2018-10-02T09:18:47.697Z,1009.9
2018-10-02T09:19:56.333Z,1009.86
2018-10-02T09:21:04.971Z,1009.84
2018-10-02T09:22:13.612Z,1009.84
2018-10-02T09:23:22.247Z,1009.83
2018-10-02T09:24:30.910Z,1009.84
2018-10-02T09:25:39.530Z,1009.9
2018-10-02T09:26:48.177Z,1009.78
2018-10-02T09:27:56.837Z,1009.84
2018-10-02T09:29:05.809Z,1009.78
2018-10-02T09:30:14.546Z,1009.79
2018-10-02T09:31:23.090Z,1009.72
2018-10-02T09:32:31.989Z,1009.75
2018-10-02T09:33:40.757Z,1009.7
2018-10-02T09:34:49.371Z,1009.71
2018-10-02T09:35:58.011Z,1009.71
2018-10-02T09:37:06.767Z,1009.66
2018-10-02T09:38:15.288Z,1009.72
2018-10-02T09:39:24.002Z,1009.61
2018-10-02T09:40:32.598Z,1009.74
2018-10-02T09:41:41.503Z,1009.55
2018-10-02T09:42:50.191Z,1009.57
2018-10-02T09:43:58.839Z,1009.64
2018-10-02T09:45:07.803Z,1009.63
2018-10-02T09:46:16.446Z,1009.6
2018-10-02T09:47:25.081Z,1009.64
2018-10-02T09:48:33.854Z,1009.7
2018-10-02T09:49:42.422Z,1009.7
2018-10-02T09:50:51.066Z,1009.63
2018-10-02T09:51:59.669Z,1009.55
2018-10-02T09:53:08.836Z,1009.57
2018-10-02T09:54:17.473Z,1009.52
2018-10-02T09:55:26.111Z,1009.56
2018-10-02T09:56:35.092Z,1009.49
2018-10-02T09:57:44.035Z,1009.57
2018-10-02T09:58:52.681Z,1009.58
2018-10-02T10:00:01.578Z,1009.63
2018-10-02T10:01:10.227Z,1009.62
2018-10-02T10:02:18.863Z,1009.63
2018-10-02T10:03:27.812Z,1009.55
2018-10-02T10:04:36.441Z,1009.46
2018-10-02T10:05:45.106Z,1009.49
2018-10-02T10:06:53.751Z,1009.59
2018-10-02T10:08:02.392Z,1009.68
2018-10-02T10:09:11.023Z,1009.66
2018-10-02T10:10:19.692Z,1009.63
2018-10-02T10:11:28.314Z,1009.7
2018-10-02T10:12:36.959Z,1009.72
2018-10-02T10:13:45.601Z,1009.64
2018-10-02T10:14:54.230Z,1009.72
2018-10-02T10:16:02.877Z,1009.77
2018-10-02T10:17:11.612Z,1009.66
2018-10-02T10:18:20.161Z,1009.68
2018-10-02T10:19:28.791Z,1009.67
2018-10-02T10:20:37.435Z,1009.65
2018-10-02T10:21:46.069Z,1009.76
2018-10-02T10:22:54.751Z,1009.64
2018-10-02T10:24:03.347Z,1009.61
2018-10-02T10:25:11.989Z,1009.55
2018-10-02T10:26:20.628Z,1009.62
2018-10-02T10:27:29.275Z,1009.65
2018-10-02T10:28:37.962Z,1009.7
2018-10-02T10:29:46.554Z,1009.71
2018-10-02T10:30:55.196Z,1009.75
2018-10-02T10:32:03.832Z,1009.64
2018-10-02T10:33:12.575Z,1009.67
2018-10-02T10:34:21.230Z,1009.67
2018-10-02T10:35:29.851Z,1009.75
2018-10-02T10:36:38.482Z,1009.75
2018-10-02T10:37:47.132Z,1009.66
2018-10-02T10:38:55.767Z,1009.62
2018-10-02T10:40:04.416Z,1009.62
2018-10-02T10:41:13.043Z,1009.6
2018-10-02T10:42:21.964Z,1009.59
2018-10-02T10:43:30.601Z,1009.57
2018-10-02T10:44:39.245Z,1009.57
2018-10-02T10:45:47.871Z,1009.53
2018-10-02T10:46:56.816Z,1009.41
2018-10-02T10:48:05.425Z,1009.52
2018-10-02T10:49:14.325Z,1009.52
2018-10-02T10:50:22.968Z,1009.52
2018-10-02T10:51:31.598Z,1009.49
2018-10-02T10:52:40.436Z,1009.41
2018-10-02T10:53:48.876Z,1009.42
2018-10-02T10:54:57.788Z,1009.43
2018-10-02T10:56:06.684Z,1009.41
2018-10-02T10:57:15.639Z,1009.42
2018-10-02T10:58:24.302Z,1009.33
2018-10-02T10:59:32.914Z,1009.34
2018-10-02T11:00:41.823Z,1009.34
2018-10-02T11:01:50.464Z,1009.38
2018-10-02T11:02:59.184Z,1009.37
2018-10-02T11:04:07.743Z,1009.31
2018-10-02T11:05:16.651Z,1009.4
2018-10-02T11:06:25.569Z,1009.38
2018-10-02T11:07:34.472Z,1009.44
2018-10-02T11:08:43.123Z,1009.43
2018-10-02T11:09:51.749Z,1009.38
2018-10-02T11:11:00.387Z,1009.39
2018-10-02T11:12:09.023Z,1009.4
2018-10-02T11:13:17.668Z,1009.34
2018-10-02T11:14:26.304Z,1009.31
2018-10-02T11:15:34.944Z,1009.32
2018-10-02T11:16:43.581Z,1009.33
2018-10-02T11:17:52.228Z,1009.27
2018-10-02T11:19:00.863Z,1009.27
2018-10-02T11:20:09.527Z,1009.22
2018-10-02T11:21:18.165Z,1009.17
2018-10-02T11:22:26.869Z,1009.2
2018-10-02T11:23:35.521Z,1009.19
2018-10-02T11:24:44.420Z,1009.17
2018-10-02T11:25:53.119Z,1009.19
2018-10-02T11:27:01.694Z,1009.23
2018-10-02T11:28:10.349Z,1009.17
2018-10-02T11:29:18.988Z,1009.14
2018-10-02T11:30:27.633Z,1009.2
2018-10-02T11:31:36.551Z,1009.2
2018-10-02T11:32:45.185Z,1009.25
2018-10-02T11:33:54.091Z,1009.14
2018-10-02T11:35:02.734Z,1009.13
2018-10-02T11:36:11.633Z,1009.12
2018-10-02T11:37:20.575Z,1009.15
2018-10-02T11:38:29.820Z,1009.21
2018-10-02T11:39:38.724Z,1009.16
2018-10-02T11:40:47.621Z,1009.04
2018-10-02T11:41:56.263Z,1009.11
2018-10-02T11:43:04.917Z,1009.05
2018-10-02T11:44:14.051Z,1009.01
2018-10-02T11:45:23.109Z,1008.93
2018-10-02T11:46:31.748Z,1008.95
2018-10-02T11:47:40.386Z,1008.96
2018-10-02T11:48:49.299Z,1008.97
2018-10-02T11:49:57.994Z,1008.97
2018-10-02T11:51:06.700Z,1008.95
2018-10-02T11:52:15.214Z,1008.93
2018-10-02T11:53:23.854Z,1008.95
2018-10-02T11:54:32.500Z,1008.91
2018-10-02T11:55:41.189Z,1008.91
2018-10-02T11:56:49.776Z,1008.82
2018-10-02T11:57:58.417Z,1008.78
2018-10-02T11:59:07.326Z,1008.86
2018-10-02T12:00:15.981Z,1008.83
2018-10-02T12:01:24.778Z,1008.82
2018-10-02T12:02:33.290Z,1008.8
2018-10-02T12:03:42.012Z,1008.74
2018-10-02T12:04:50.542Z,1008.8
2018-10-02T12:05:59.703Z,1008.8
2018-10-02T12:07:08.351Z,1008.78
2018-10-02T12:08:16.981Z,1008.81
2018-10-02T12:09:25.632Z,1008.8
2018-10-02T12:10:34.269Z,1008.81
2018-10-02T12:11:43.043Z,1008.74
2018-10-02T12:12:51.608Z,1008.73
2018-10-02T12:14:00.304Z,1008.73
2018-10-02T12:15:08.839Z,1008.74
2018-10-02T12:16:18.135Z,1008.7
2018-10-02T12:17:26.765Z,1008.72
2018-10-02T12:18:35.408Z,1008.72
2018-10-02T12:19:44.224Z,1008.73
2018-10-02T12:20:54.013Z,1008.66
2018-10-02T12:22:02.658Z,1008.71
2018-10-02T12:23:11.287Z,1008.64
2018-10-02T12:24:19.930Z,1008.63
2018-10-02T12:25:28.565Z,1008.66
2018-10-02T12:26:37.214Z,1008.65
2018-10-02T12:27:45.848Z,1008.72
2018-10-02T12:28:54.487Z,1008.66
2018-10-02T12:30:03.131Z,1008.66
2018-10-02T12:31:11.795Z,1008.71
2018-10-02T12:32:20.421Z,1008.69
2018-10-02T12:33:29.057Z,1008.66
2018-10-02T12:34:37.961Z,1008.68
2018-10-02T12:35:46.878Z,1008.63
2018-10-02T12:36:55.514Z,1008.66
2018-10-02T12:38:04.420Z,1008.72
2018-10-02T12:39:13.074Z,1008.59
2018-10-02T12:40:21.980Z,1008.57
2018-10-02T12:41:30.632Z,1008.55
2018-10-02T12:42:39.791Z,1008.5
2018-10-02T12:43:48.440Z,1008.51
2018-10-02T12:44:57.333Z,1008.56
2018-10-02T12:46:06.289Z,1008.64
2018-10-02T12:47:14.899Z,1008.69
2018-10-02T12:48:23.829Z,1008.71
2018-10-02T12:49:32.742Z,1008.82
2018-10-02T12:50:41.922Z,1008.79
2018-10-02T12:51:50.560Z,1008.76
2018-10-02T12:52:59.886Z,1008.69
2018-10-02T12:54:08.419Z,1008.62
2018-10-02T12:55:17.057Z,1008.64
2018-10-02T12:56:25.695Z,1008.58
2018-10-02T12:57:34.604Z,1008.54
2018-10-02T12:58:43.514Z,1008.55
2018-10-02T12:59:52.154Z,1008.55
2018-10-02T13:01:00.803Z,1008.59
2018-10-02T13:02:09.703Z,1008.69
2018-10-02T13:03:18.334Z,1008.63
2018-10-02T13:04:26.988Z,1008.68
2018-10-02T13:05:35.892Z,1008.62
2018-10-02T13:06:44.560Z,1008.64
2018-10-02T13:07:53.459Z,1008.65
2018-10-02T13:09:02.112Z,1008.74
2018-10-02T13:10:10.820Z,1008.68
2018-10-02T13:11:19.393Z,1008.71
2018-10-02T13:12:28.020Z,1008.67
2018-10-02T13:13:36.665Z,1008.58
2018-10-02T13:14:45.313Z,1008.62
2018-10-02T13:15:53.956Z,1008.68
2018-10-02T13:17:02.601Z,1008.67
2018-10-02T13:18:11.508Z,1008.66
2018-10-02T13:19:20.171Z,1008.65
2018-10-02T13:20:28.787Z,1008.65
2018-10-02T13:21:37.732Z,1008.68
2018-10-02T13:22:46.364Z,1008.72
2018-10-02T13:23:55.011Z,1008.74
2018-10-02T13:25:04.545Z,1008.74
2018-10-02T13:26:13.381Z,1008.75
2018-10-02T13:27:22.014Z,1008.67
2018-10-02T13:28:30.689Z,1008.63
2018-10-02T13:29:39.364Z,1008.61
2018-10-02T13:30:48.014Z,1008.63
2018-10-02T13:31:56.658Z,1008.75
2018-10-02T13:33:05.297Z,1008.7
2018-10-02T13:34:14.198Z,1008.69
2018-10-02T13:35:22.840Z,1008.68
2018-10-02T13:36:31.489Z,1008.7
2018-10-02T13:37:40.134Z,1008.72
2018-10-02T13:38:49.075Z,1008.76
2018-10-02T13:39:57.707Z,1008.78
2018-10-02T13:41:06.359Z,1008.75
2018-10-02T13:42:15.001Z,1008.69
2018-10-02T13:43:23.648Z,1008.75
2018-10-02T13:44:32.306Z,1008.71
2018-10-02T13:45:40.937Z,1008.77
2018-10-02T13:46:49.578Z,1008.79
2018-10-02T13:47:59.030Z,1008.75
2018-10-02T13:49:07.667Z,1008.65
2018-10-02T13:50:16.571Z,1008.72
2018-10-02T13:51:25.216Z,1008.69
2018-10-02T13:52:33.860Z,1008.73
2018-10-02T13:53:42.503Z,1008.75
2018-10-02T13:54:51.142Z,1008.7